OS72 weather

Tiyas Air Base
Tiyas, Homs Governorate, Syria

Public forecast

Using degrees Celsius for public forecast. Weather courtesy of forecast.io.

Closest aviation weather report (METAR) to Tiyas Air Base

Closest report is Damascus International Airport, 86.8 nm (160.7 km) SW. Retrieved 2020/07/08 12:00 UTC (2 hours ago):

OSDI 081200Z 23015KT CAVOK 37/04 Q1007

Closest aviation forecast (TAF) to Tiyas Air Base

Forecast is more than 12 hours old.

Closest forecast is Damascus International Airport, 86.8 nm (160.7 km) SW. Retrieved 2020/07/07 18:03 UTC (20 hours ago):

TAF TAF OSDI 071600Z 0718/0824 22015KT CAVOK TEMPO 0809/0818 28015G25KT 9999 FEW030